Bristol, RI (02809)

1:02 PM EDT on October 23, 2014 (GMT -0400)
Ted August's Station, Bristol Highlands | Change Station
CLOSE
Current Station
Personal Weather Station
Location: Bristol, RI
Elevation: 104 ft
Nearby Weather Stations

Elev 104 ft 41.68 °N, 71.28 °W | Updated 20 seconds ago

Rain
Rain
57.0 °F
Feels Like 57.0 °F
N
0.0
Wind Variable Wind from ENE
Gusts 0.0 mph

Today
High -- | Low -- °F
--% Chance of Precip.
Yesterday
High -- | Low -- °F
Precip. -- in
7:06 AM 5:51 PM
Waning Crescent, 0% visible
Pressure 29.59 in
Visibility 10.0 miles
Clouds Overcast 1000 ft
Dew Point 53 °F
Humidity 86%
Rainfall 0.00 in
Snow Depth Not available.
UV 1 out of 12
Pollen .10 out of 12
Air Quality Not available.
Flu Activity No Activity
METAR KPVD 231651Z 36014KT 10SM -RA OVC010 13/11 A2959 RMK AO2 RAB50 SLP018 P0000 T01280106

More Conditions Fewer Conditions

Pressure 29.59 in
Visibility 10.0 miles
Clouds Overcast 1000 ft
Dew Point 53 °F
Humidity 86%
Rainfall 0.00 in
Snow Depth Not available.
UV 1 out of 12
Pollen .10 out of 12
Air Quality Not available.
Flu Activity No Activity
METAR KPVD 231651Z 36014KT 10SM -RA OVC010 13/11 A2959 RMK AO2 RAB50 SLP018 P0000 T01280106

More Conditions Fewer Conditions

10-Day Weather Forecast

Almanac

Astronomy

Oct. 23, 2014 Rise Set
Actual Time 7:06 AM EDT 5:51 PM EDT
Civil Twilight 6:38 AM EDT 6:20 PM EDT
Nautical Twilight 6:05 AM EDT 6:52 PM EDT
Astronomical Twilight 5:33 AM EDT 7:24 PM EDT
Moon 6:42 AM EDT 5:51 PM EDT
Length of Visible Light 11h 42m
Length of Day
10h 45m
Tomorrow will be 2m 35s shorter.
Waning Crescent, 0% of the Moon is Illuminated
Today
Waning Crescent
Oct 23
New
Oct 30
First Quarter
Nov 6
Full
Nov 14
Last Quarter

Today's Extremes

State Highs State Lows

Community

WunderPhotos

Upload Photos

1,764,311 photos uploaded!

WunderBlogs® & News

Nearby

Air Quality

  Air Quality AQ Index Pollutant
Yesterday Good
OZONE
Yesterday Good
PM2.5
Thursday Good
PM2.5

Snow Depth

Station Depth Elevation
No new snow has been reported.

Earthquake Activity

City Distance Mag. Time & Date
No recent earthquake activity has been reported nearby.
Minimum magnitude displayed is 2.5.

Coastal Water Temperatures

Place Temperature
Newport, RI 60.1 °F
Quonset Point, RI 59.0 °F
Conimicut Light, RI 60.1 °F

Nearby Weather Stations